sensor_id;sensor_type;location;lat;lon;timestamp;P1;durP1;ratioP1;P2;durP2;ratioP2
29218;SDS011;16421;50.202;7.852;2023-02-28T00:04:34;1.23;;;0.90;;
29218;SDS011;16421;50.202;7.852;2023-02-28T00:09:37;1.52;;;1.00;;
29218;SDS011;16421;50.202;7.852;2023-02-28T00:14:44;2.00;;;1.05;;
29218;SDS011;16421;50.202;7.852;2023-02-28T00:19:48;1.45;;;0.90;;
29218;SDS011;16421;50.202;7.852;2023-02-28T00:24:51;0.80;;;0.80;;
29218;SDS011;16421;50.202;7.852;2023-02-28T00:29:56;0.70;;;0.70;;
29218;SDS011;16421;50.202;7.852;2023-02-28T00:35:04;1.20;;;1.10;;
29218;SDS011;16421;50.202;7.852;2023-02-28T00:40:09;0.80;;;0.77;;
29218;SDS011;16421;50.202;7.852;2023-02-28T00:45:18;1.40;;;1.25;;
29218;SDS011;16421;50.202;7.852;2023-02-28T00:50:21;1.33;;;1.23;;
29218;SDS011;16421;50.202;7.852;2023-02-28T00:55:24;1.48;;;0.85;;
29218;SDS011;16421;50.202;7.852;2023-02-28T01:00:29;1.50;;;1.20;;
29218;SDS011;16421;50.202;7.852;2023-02-28T01:05:33;2.15;;;1.20;;
29218;SDS011;16421;50.202;7.852;2023-02-28T01:10:36;1.75;;;1.30;;
29218;SDS011;16421;50.202;7.852;2023-02-28T01:15:43;2.47;;;1.08;;
29218;SDS011;16421;50.202;7.852;2023-02-28T01:20:53;2.03;;;1.30;;
29218;SDS011;16421;50.202;7.852;2023-02-28T01:25:56;2.28;;;1.42;;
29218;SDS011;16421;50.202;7.852;2023-02-28T01:31:01;1.92;;;1.20;;
29218;SDS011;16421;50.202;7.852;2023-02-28T01:36:05;2.88;;;1.20;;
29218;SDS011;16421;50.202;7.852;2023-02-28T01:41:14;2.45;;;1.60;;
29218;SDS011;16421;50.202;7.852;2023-02-28T01:46:22;1.65;;;1.20;;
29218;SDS011;16421;50.202;7.852;2023-02-28T01:51:29;2.25;;;1.50;;
29218;SDS011;16421;50.202;7.852;2023-02-28T01:56:38;2.88;;;1.48;;
29218;SDS011;16421;50.202;7.852;2023-02-28T02:01:45;2.33;;;1.48;;
29218;SDS011;16421;50.202;7.852;2023-02-28T02:06:49;3.17;;;1.63;;
29218;SDS011;16421;50.202;7.852;2023-02-28T02:11:54;1.97;;;1.53;;
29218;SDS011;16421;50.202;7.852;2023-02-28T02:17:07;1.65;;;1.50;;
29218;SDS011;16421;50.202;7.852;2023-02-28T02:22:28;2.60;;;2.05;;
29218;SDS011;16421;50.202;7.852;2023-02-28T02:27:55;1.95;;;1.50;;
29218;SDS011;16421;50.202;7.852;2023-02-28T02:38:57;1.83;;;1.70;;
29218;SDS011;16421;50.202;7.852;2023-02-28T02:44:06;2.22;;;1.45;;
29218;SDS011;16421;50.202;7.852;2023-02-28T02:49:16;2.20;;;1.48;;
29218;SDS011;16421;50.202;7.852;2023-02-28T02:54:25;1.55;;;1.45;;
29218;SDS011;16421;50.202;7.852;2023-02-28T02:59:31;2.00;;;1.50;;
29218;SDS011;16421;50.202;7.852;2023-02-28T03:04:37;1.65;;;1.55;;
29218;SDS011;16421;50.202;7.852;2023-02-28T03:09:51;1.90;;;1.52;;
29218;SDS011;16421;50.202;7.852;2023-02-28T03:14:56;1.88;;;1.33;;
29218;SDS011;16421;50.202;7.852;2023-02-28T03:20:08;2.80;;;1.88;;
29218;SDS011;16421;50.202;7.852;2023-02-28T03:25:20;2.03;;;1.63;;
29218;SDS011;16421;50.202;7.852;2023-02-28T03:30:32;2.08;;;1.50;;
29218;SDS011;16421;50.202;7.852;2023-02-28T03:35:41;2.15;;;1.55;;
29218;SDS011;16421;50.202;7.852;2023-02-28T03:40:50;1.80;;;1.60;;
29218;SDS011;16421;50.202;7.852;2023-02-28T03:46:00;2.20;;;1.60;;
29218;SDS011;16421;50.202;7.852;2023-02-28T03:51:08;1.75;;;1.58;;
29218;SDS011;16421;50.202;7.852;2023-02-28T03:56:18;2.47;;;1.98;;
29218;SDS011;16421;50.202;7.852;2023-02-28T04:01:25;2.13;;;1.60;;
29218;SDS011;16421;50.202;7.852;2023-02-28T04:06:34;1.75;;;1.58;;
29218;SDS011;16421;50.202;7.852;2023-02-28T04:11:40;1.92;;;1.60;;
29218;SDS011;16421;50.202;7.852;2023-02-28T04:16:45;3.30;;;1.50;;
29218;SDS011;16421;50.202;7.852;2023-02-28T04:21:50;1.58;;;1.40;;
29218;SDS011;16421;50.202;7.852;2023-02-28T04:26:56;2.17;;;1.97;;
29218;SDS011;16421;50.202;7.852;2023-02-28T04:32:00;3.75;;;2.03;;
29218;SDS011;16421;50.202;7.852;2023-02-28T04:37:04;2.58;;;1.98;;
29218;SDS011;16421;50.202;7.852;2023-02-28T04:42:15;1.92;;;1.70;;
29218;SDS011;16421;50.202;7.852;2023-02-28T04:47:18;1.65;;;1.55;;
29218;SDS011;16421;50.202;7.852;2023-02-28T04:52:22;2.00;;;1.80;;
29218;SDS011;16421;50.202;7.852;2023-02-28T04:57:27;1.85;;;1.45;;
29218;SDS011;16421;50.202;7.852;2023-02-28T05:02:31;2.03;;;1.60;;
29218;SDS011;16421;50.202;7.852;2023-02-28T05:07:37;1.70;;;1.60;;
29218;SDS011;16421;50.202;7.852;2023-02-28T05:12:41;2.33;;;2.03;;
29218;SDS011;16421;50.202;7.852;2023-02-28T05:17:45;2.50;;;2.03;;
29218;SDS011;16421;50.202;7.852;2023-02-28T05:22:49;2.13;;;1.70;;
29218;SDS011;16421;50.202;7.852;2023-02-28T05:27:54;3.03;;;2.30;;
29218;SDS011;16421;50.202;7.852;2023-02-28T05:32:58;2.85;;;2.00;;
29218;SDS011;16421;50.202;7.852;2023-02-28T05:38:01;2.13;;;1.77;;
29218;SDS011;16421;50.202;7.852;2023-02-28T05:43:07;4.00;;;2.20;;
29218;SDS011;16421;50.202;7.852;2023-02-28T05:48:13;4.28;;;2.15;;
29218;SDS011;16421;50.202;7.852;2023-02-28T05:53:16;2.42;;;2.10;;
29218;SDS011;16421;50.202;7.852;2023-02-28T05:58:21;4.30;;;2.13;;
29218;SDS011;16421;50.202;7.852;2023-02-28T06:03:26;3.85;;;2.03;;
29218;SDS011;16421;50.202;7.852;2023-02-28T06:08:30;2.20;;;1.73;;
29218;SDS011;16421;50.202;7.852;2023-02-28T06:13:35;2.30;;;2.10;;
29218;SDS011;16421;50.202;7.852;2023-02-28T06:18:38;2.53;;;1.90;;
29218;SDS011;16421;50.202;7.852;2023-02-28T06:23:42;4.70;;;2.50;;
29218;SDS011;16421;50.202;7.852;2023-02-28T06:28:47;4.60;;;2.10;;
29218;SDS011;16421;50.202;7.852;2023-02-28T06:33:51;3.15;;;2.33;;
29218;SDS011;16421;50.202;7.852;2023-02-28T06:38:54;4.32;;;2.20;;
29218;SDS011;16421;50.202;7.852;2023-02-28T06:43:59;2.85;;;2.17;;
29218;SDS011;16421;50.202;7.852;2023-02-28T06:49:02;2.47;;;1.95;;
29218;SDS011;16421;50.202;7.852;2023-02-28T06:54:06;3.10;;;2.28;;
29218;SDS011;16421;50.202;7.852;2023-02-28T06:59:11;3.13;;;2.03;;
29218;SDS011;16421;50.202;7.852;2023-02-28T07:04:15;2.38;;;1.70;;
29218;SDS011;16421;50.202;7.852;2023-02-28T07:09:19;3.00;;;1.60;;
29218;SDS011;16421;50.202;7.852;2023-02-28T07:14:23;2.60;;;1.88;;
29218;SDS011;16421;50.202;7.852;2023-02-28T07:19:27;2.42;;;1.90;;
29218;SDS011;16421;50.202;7.852;2023-02-28T07:24:30;2.97;;;2.20;;
29218;SDS011;16421;50.202;7.852;2023-02-28T07:29:35;1.80;;;1.70;;
29218;SDS011;16421;50.202;7.852;2023-02-28T07:34:39;3.10;;;2.40;;
29218;SDS011;16421;50.202;7.852;2023-02-28T07:39:42;4.40;;;2.42;;
29218;SDS011;16421;50.202;7.852;2023-02-28T07:44:47;3.15;;;2.45;;
29218;SDS011;16421;50.202;7.852;2023-02-28T07:49:52;2.42;;;2.10;;
29218;SDS011;16421;50.202;7.852;2023-02-28T07:54:56;4.18;;;3.08;;
29218;SDS011;16421;50.202;7.852;2023-02-28T08:00:01;4.10;;;2.45;;
29218;SDS011;16421;50.202;7.852;2023-02-28T08:05:11;2.95;;;2.25;;
29218;SDS011;16421;50.202;7.852;2023-02-28T08:10:15;3.17;;;2.35;;
29218;SDS011;16421;50.202;7.852;2023-02-28T08:15:20;3.05;;;2.15;;
29218;SDS011;16421;50.202;7.852;2023-02-28T08:20:24;2.90;;;2.13;;
29218;SDS011;16421;50.202;7.852;2023-02-28T08:25:28;3.80;;;2.13;;
29218;SDS011;16421;50.202;7.852;2023-02-28T08:30:33;3.25;;;2.22;;
29218;SDS011;16421;50.202;7.852;2023-02-28T08:35:36;3.17;;;2.47;;
29218;SDS011;16421;50.202;7.852;2023-02-28T08:40:40;3.70;;;2.50;;
29218;SDS011;16421;50.202;7.852;2023-02-28T08:45:45;4.07;;;2.78;;
29218;SDS011;16421;50.202;7.852;2023-02-28T08:50:54;3.55;;;2.30;;
29218;SDS011;16421;50.202;7.852;2023-02-28T08:56:07;3.80;;;2.15;;
29218;SDS011;16421;50.202;7.852;2023-02-28T09:01:14;3.00;;;2.45;;
29218;SDS011;16421;50.202;7.852;2023-02-28T09:06:19;4.63;;;2.92;;
29218;SDS011;16421;50.202;7.852;2023-02-28T09:11:24;2.83;;;2.40;;
29218;SDS011;16421;50.202;7.852;2023-02-28T09:16:29;5.30;;;2.80;;
29218;SDS011;16421;50.202;7.852;2023-02-28T09:21:33;3.35;;;2.13;;
29218;SDS011;16421;50.202;7.852;2023-02-28T09:26:37;4.25;;;2.55;;
29218;SDS011;16421;50.202;7.852;2023-02-28T09:31:44;3.97;;;2.20;;
29218;SDS011;16421;50.202;7.852;2023-02-28T09:36:47;2.40;;;1.80;;
29218;SDS011;16421;50.202;7.852;2023-02-28T09:41:52;4.47;;;2.72;;
29218;SDS011;16421;50.202;7.852;2023-02-28T09:46:58;5.70;;;3.10;;
29218;SDS011;16421;50.202;7.852;2023-02-28T09:52:09;3.83;;;2.50;;
29218;SDS011;16421;50.202;7.852;2023-02-28T09:57:17;2.75;;;2.00;;
29218;SDS011;16421;50.202;7.852;2023-02-28T10:02:38;2.20;;;2.00;;
29218;SDS011;16421;50.202;7.852;2023-02-28T10:07:51;3.42;;;2.60;;
29218;SDS011;16421;50.202;7.852;2023-02-28T10:13:04;2.78;;;2.35;;
29218;SDS011;16421;50.202;7.852;2023-02-28T10:18:16;5.07;;;3.03;;
29218;SDS011;16421;50.202;7.852;2023-02-28T10:23:27;3.97;;;2.50;;
29218;SDS011;16421;50.202;7.852;2023-02-28T10:28:34;3.72;;;2.72;;
29218;SDS011;16421;50.202;7.852;2023-02-28T10:33:38;4.78;;;2.72;;
29218;SDS011;16421;50.202;7.852;2023-02-28T10:38:42;3.03;;;2.30;;
29218;SDS011;16421;50.202;7.852;2023-02-28T10:43:47;3.92;;;2.10;;
29218;SDS011;16421;50.202;7.852;2023-02-28T10:48:59;3.88;;;2.30;;
29218;SDS011;16421;50.202;7.852;2023-02-28T10:54:05;4.57;;;3.30;;
29218;SDS011;16421;50.202;7.852;2023-02-28T10:59:28;3.75;;;2.35;;
29218;SDS011;16421;50.202;7.852;2023-02-28T11:04:35;4.18;;;1.95;;
29218;SDS011;16421;50.202;7.852;2023-02-28T11:09:40;3.05;;;2.45;;
29218;SDS011;16421;50.202;7.852;2023-02-28T11:14:49;2.97;;;2.15;;
29218;SDS011;16421;50.202;7.852;2023-02-28T11:19:55;2.85;;;2.30;;
29218;SDS011;16421;50.202;7.852;2023-02-28T11:25:01;4.38;;;3.00;;
29218;SDS011;16421;50.202;7.852;2023-02-28T11:30:22;4.43;;;2.60;;
29218;SDS011;16421;50.202;7.852;2023-02-28T11:35:33;4.90;;;2.97;;
29218;SDS011;16421;50.202;7.852;2023-02-28T11:40:41;5.90;;;2.83;;
29218;SDS011;16421;50.202;7.852;2023-02-28T11:45:55;6.28;;;3.85;;
29218;SDS011;16421;50.202;7.852;2023-02-28T11:51:13;5.10;;;2.80;;
29218;SDS011;16421;50.202;7.852;2023-02-28T11:56:22;3.58;;;2.53;;
29218;SDS011;16421;50.202;7.852;2023-02-28T12:01:38;2.80;;;2.50;;
29218;SDS011;16421;50.202;7.852;2023-02-28T12:07:00;3.58;;;2.35;;
29218;SDS011;16421;50.202;7.852;2023-02-28T12:12:19;2.80;;;2.40;;
29218;SDS011;16421;50.202;7.852;2023-02-28T12:17:32;4.97;;;2.92;;
29218;SDS011;16421;50.202;7.852;2023-02-28T12:22:47;4.32;;;3.15;;
29218;SDS011;16421;50.202;7.852;2023-02-28T12:27:57;3.83;;;2.88;;
29218;SDS011;16421;50.202;7.852;2023-02-28T12:33:03;5.30;;;2.83;;
29218;SDS011;16421;50.202;7.852;2023-02-28T12:38:12;3.70;;;2.90;;
29218;SDS011;16421;50.202;7.852;2023-02-28T12:43:20;4.90;;;2.97;;
29218;SDS011;16421;50.202;7.852;2023-02-28T12:48:29;3.00;;;2.50;;
29218;SDS011;16421;50.202;7.852;2023-02-28T12:53:44;3.65;;;2.15;;
29218;SDS011;16421;50.202;7.852;2023-02-28T12:58:57;4.75;;;2.70;;
29218;SDS011;16421;50.202;7.852;2023-02-28T13:04:22;6.78;;;3.63;;
29218;SDS011;16421;50.202;7.852;2023-02-28T13:09:52;5.45;;;3.15;;
29218;SDS011;16421;50.202;7.852;2023-02-28T13:15:07;6.32;;;3.80;;
29218;SDS011;16421;50.202;7.852;2023-02-28T13:20:23;5.25;;;3.63;;
29218;SDS011;16421;50.202;7.852;2023-02-28T13:31:01;4.13;;;2.80;;
29218;SDS011;16421;50.202;7.852;2023-02-28T13:36:07;3.67;;;3.10;;
29218;SDS011;16421;50.202;7.852;2023-02-28T13:52:25;4.15;;;2.85;;
29218;SDS011;16421;50.202;7.852;2023-02-28T13:57:33;4.65;;;2.85;;
29218;SDS011;16421;50.202;7.852;2023-02-28T14:02:48;2.22;;;2.03;;
29218;SDS011;16421;50.202;7.852;2023-02-28T14:08:08;3.15;;;2.55;;
29218;SDS011;16421;50.202;7.852;2023-02-28T14:18:48;3.63;;;2.97;;
29218;SDS011;16421;50.202;7.852;2023-02-28T14:24:08;3.63;;;3.10;;
29218;SDS011;16421;50.202;7.852;2023-02-28T14:29:30;4.28;;;2.88;;
29218;SDS011;16421;50.202;7.852;2023-02-28T14:34:45;6.75;;;3.33;;
29218;SDS011;16421;50.202;7.852;2023-02-28T14:39:55;3.63;;;3.05;;
29218;SDS011;16421;50.202;7.852;2023-02-28T14:45:01;4.47;;;3.03;;
29218;SDS011;16421;50.202;7.852;2023-02-28T14:50:05;3.47;;;2.53;;
29218;SDS011;16421;50.202;7.852;2023-02-28T14:55:20;4.53;;;2.85;;
29218;SDS011;16421;50.202;7.852;2023-02-28T15:00:29;4.65;;;2.78;;
29218;SDS011;16421;50.202;7.852;2023-02-28T15:05:34;3.03;;;2.72;;
29218;SDS011;16421;50.202;7.852;2023-02-28T15:10:38;3.35;;;2.80;;
29218;SDS011;16421;50.202;7.852;2023-02-28T15:15:44;4.43;;;3.17;;
29218;SDS011;16421;50.202;7.852;2023-02-28T15:21:02;3.47;;;2.50;;
29218;SDS011;16421;50.202;7.852;2023-02-28T15:26:09;3.65;;;2.70;;
29218;SDS011;16421;50.202;7.852;2023-02-28T15:31:23;3.50;;;2.50;;
29218;SDS011;16421;50.202;7.852;2023-02-28T15:36:34;3.08;;;2.22;;
29218;SDS011;16421;50.202;7.852;2023-02-28T15:41:38;3.00;;;2.30;;
29218;SDS011;16421;50.202;7.852;2023-02-28T15:46:44;3.90;;;2.42;;
29218;SDS011;16421;50.202;7.852;2023-02-28T15:51:58;3.95;;;2.38;;
29218;SDS011;16421;50.202;7.852;2023-02-28T15:57:03;2.40;;;1.83;;
29218;SDS011;16421;50.202;7.852;2023-02-28T16:02:15;2.92;;;1.88;;
29218;SDS011;16421;50.202;7.852;2023-02-28T16:07:20;2.50;;;2.00;;
29218;SDS011;16421;50.202;7.852;2023-02-28T16:12:26;2.42;;;2.00;;
29218;SDS011;16421;50.202;7.852;2023-02-28T16:17:33;3.78;;;2.58;;
29218;SDS011;16421;50.202;7.852;2023-02-28T16:22:40;5.82;;;2.70;;
29218;SDS011;16421;50.202;7.852;2023-02-28T16:27:45;2.90;;;2.35;;
29218;SDS011;16421;50.202;7.852;2023-02-28T16:32:54;3.97;;;2.60;;
29218;SDS011;16421;50.202;7.852;2023-02-28T16:37:57;4.85;;;2.40;;
29218;SDS011;16421;50.202;7.852;2023-02-28T16:43:01;3.17;;;2.20;;
29218;SDS011;16421;50.202;7.852;2023-02-28T16:48:12;5.10;;;3.15;;
29218;SDS011;16421;50.202;7.852;2023-02-28T16:53:18;3.72;;;2.20;;
29218;SDS011;16421;50.202;7.852;2023-02-28T16:58:22;2.88;;;2.20;;
29218;SDS011;16421;50.202;7.852;2023-02-28T17:03:28;3.13;;;2.00;;
29218;SDS011;16421;50.202;7.852;2023-02-28T17:08:33;3.13;;;2.00;;
29218;SDS011;16421;50.202;7.852;2023-02-28T17:13:37;3.58;;;2.10;;
29218;SDS011;16421;50.202;7.852;2023-02-28T17:18:42;3.38;;;2.00;;
29218;SDS011;16421;50.202;7.852;2023-02-28T17:23:45;2.60;;;1.83;;
29218;SDS011;16421;50.202;7.852;2023-02-28T17:28:49;3.05;;;1.95;;
29218;SDS011;16421;50.202;7.852;2023-02-28T17:33:55;1.60;;;1.50;;
29218;SDS011;16421;50.202;7.852;2023-02-28T17:38:58;3.40;;;1.80;;
29218;SDS011;16421;50.202;7.852;2023-02-28T17:44:01;3.60;;;2.17;;
29218;SDS011;16421;50.202;7.852;2023-02-28T17:49:08;2.10;;;1.80;;
29218;SDS011;16421;50.202;7.852;2023-02-28T17:54:12;3.20;;;2.00;;
29218;SDS011;16421;50.202;7.852;2023-02-28T17:59:19;2.47;;;1.95;;
29218;SDS011;16421;50.202;7.852;2023-02-28T18:04:23;1.73;;;1.63;;
29218;SDS011;16421;50.202;7.852;2023-02-28T18:09:28;3.28;;;2.20;;
29218;SDS011;16421;50.202;7.852;2023-02-28T18:14:32;3.15;;;2.35;;
29218;SDS011;16421;50.202;7.852;2023-02-28T18:19:36;2.90;;;2.38;;
29218;SDS011;16421;50.202;7.852;2023-02-28T18:24:40;5.32;;;3.45;;
29218;SDS011;16421;50.202;7.852;2023-02-28T18:29:44;7.60;;;4.07;;
29218;SDS011;16421;50.202;7.852;2023-02-28T18:34:51;8.60;;;4.20;;
29218;SDS011;16421;50.202;7.852;2023-02-28T18:39:54;7.60;;;4.03;;
29218;SDS011;16421;50.202;7.852;2023-02-28T18:44:57;6.78;;;3.47;;
29218;SDS011;16421;50.202;7.852;2023-02-28T18:50:02;4.30;;;3.05;;
29218;SDS011;16421;50.202;7.852;2023-02-28T18:55:06;6.47;;;3.67;;
29218;SDS011;16421;50.202;7.852;2023-02-28T19:00:11;7.07;;;3.60;;
29218;SDS011;16421;50.202;7.852;2023-02-28T19:05:19;9.43;;;4.53;;
29218;SDS011;16421;50.202;7.852;2023-02-28T19:10:23;13.50;;;6.80;;
29218;SDS011;16421;50.202;7.852;2023-02-28T19:15:26;18.08;;;8.38;;
29218;SDS011;16421;50.202;7.852;2023-02-28T19:20:32;17.88;;;9.77;;
29218;SDS011;16421;50.202;7.852;2023-02-28T19:25:38;12.10;;;7.43;;
29218;SDS011;16421;50.202;7.852;2023-02-28T19:30:45;12.48;;;7.28;;
29218;SDS011;16421;50.202;7.852;2023-02-28T19:35:50;13.38;;;7.70;;
29218;SDS011;16421;50.202;7.852;2023-02-28T19:41:00;11.93;;;6.10;;
29218;SDS011;16421;50.202;7.852;2023-02-28T19:46:04;10.07;;;6.22;;
29218;SDS011;16421;50.202;7.852;2023-02-28T19:51:12;9.30;;;6.20;;
29218;SDS011;16421;50.202;7.852;2023-02-28T19:56:16;14.40;;;7.47;;
29218;SDS011;16421;50.202;7.852;2023-02-28T20:01:19;12.65;;;6.85;;
29218;SDS011;16421;50.202;7.852;2023-02-28T20:06:24;14.18;;;7.72;;
29218;SDS011;16421;50.202;7.852;2023-02-28T20:11:27;12.57;;;6.75;;
29218;SDS011;16421;50.202;7.852;2023-02-28T20:16:31;16.35;;;7.55;;
29218;SDS011;16421;50.202;7.852;2023-02-28T20:21:36;19.98;;;9.55;;
29218;SDS011;16421;50.202;7.852;2023-02-28T20:31:44;8.38;;;5.10;;
29218;SDS011;16421;50.202;7.852;2023-02-28T20:36:49;9.50;;;5.38;;
29218;SDS011;16421;50.202;7.852;2023-02-28T20:41:53;8.52;;;5.15;;
29218;SDS011;16421;50.202;7.852;2023-02-28T20:46:56;11.32;;;5.55;;
29218;SDS011;16421;50.202;7.852;2023-02-28T20:52:02;9.52;;;5.07;;
29218;SDS011;16421;50.202;7.852;2023-02-28T20:57:06;8.77;;;5.05;;
29218;SDS011;16421;50.202;7.852;2023-02-28T21:02:10;9.75;;;5.75;;
29218;SDS011;16421;50.202;7.852;2023-02-28T21:07:19;11.48;;;6.35;;
29218;SDS011;16421;50.202;7.852;2023-02-28T21:12:22;16.80;;;7.15;;
29218;SDS011;16421;50.202;7.852;2023-02-28T21:17:27;13.90;;;6.63;;
29218;SDS011;16421;50.202;7.852;2023-02-28T21:22:31;20.95;;;9.27;;
29218;SDS011;16421;50.202;7.852;2023-02-28T21:27:35;15.40;;;6.93;;
29218;SDS011;16421;50.202;7.852;2023-02-28T21:32:38;12.90;;;6.68;;
29218;SDS011;16421;50.202;7.852;2023-02-28T21:37:43;12.50;;;7.25;;
29218;SDS011;16421;50.202;7.852;2023-02-28T21:42:46;13.05;;;7.22;;
29218;SDS011;16421;50.202;7.852;2023-02-28T21:47:50;12.25;;;6.45;;
29218;SDS011;16421;50.202;7.852;2023-02-28T21:52:55;11.20;;;5.95;;
29218;SDS011;16421;50.202;7.852;2023-02-28T21:57:58;13.50;;;7.35;;
29218;SDS011;16421;50.202;7.852;2023-02-28T22:03:02;9.15;;;5.25;;
29218;SDS011;16421;50.202;7.852;2023-02-28T22:08:08;9.65;;;5.47;;
29218;SDS011;16421;50.202;7.852;2023-02-28T22:13:18;11.35;;;6.40;;
29218;SDS011;16421;50.202;7.852;2023-02-28T22:18:22;13.45;;;6.45;;
29218;SDS011;16421;50.202;7.852;2023-02-28T22:23:27;13.20;;;6.43;;
29218;SDS011;16421;50.202;7.852;2023-02-28T22:28:30;14.27;;;6.87;;
29218;SDS011;16421;50.202;7.852;2023-02-28T22:33:34;13.43;;;6.82;;
29218;SDS011;16421;50.202;7.852;2023-02-28T22:38:39;16.10;;;7.03;;
29218;SDS011;16421;50.202;7.852;2023-02-28T22:43:43;11.27;;;6.13;;
29218;SDS011;16421;50.202;7.852;2023-02-28T22:48:48;12.52;;;6.18;;
29218;SDS011;16421;50.202;7.852;2023-02-28T22:53:54;12.05;;;5.18;;
29218;SDS011;16421;50.202;7.852;2023-02-28T22:59:00;8.13;;;5.10;;
29218;SDS011;16421;50.202;7.852;2023-02-28T23:04:04;7.70;;;4.47;;
29218;SDS011;16421;50.202;7.852;2023-02-28T23:09:11;9.52;;;4.97;;
29218;SDS011;16421;50.202;7.852;2023-02-28T23:14:19;7.03;;;4.05;;
29218;SDS011;16421;50.202;7.852;2023-02-28T23:19:23;7.38;;;4.28;;
29218;SDS011;16421;50.202;7.852;2023-02-28T23:24:32;7.65;;;4.15;;
29218;SDS011;16421;50.202;7.852;2023-02-28T23:29:36;7.70;;;3.72;;
29218;SDS011;16421;50.202;7.852;2023-02-28T23:34:40;5.07;;;3.85;;
29218;SDS011;16421;50.202;7.852;2023-02-28T23:39:45;8.43;;;4.78;;
29218;SDS011;16421;50.202;7.852;2023-02-28T23:44:48;7.40;;;4.68;;
29218;SDS011;16421;50.202;7.852;2023-02-28T23:49:52;5.70;;;3.78;;
29218;SDS011;16421;50.202;7.852;2023-02-28T23:54:56;6.68;;;3.72;;
